NCAR-RAP Real-Time Weather Data

Output produced by METARs form (10 April 2020  07:20 UTC)
found at http://weather.rap.ucar.edu/surface/
 
KMHT 100653Z VRB04KT 10SM CLR 03/M03 A2910 RMK AO2 SLP869 T00331028